Time;durP1;ratioP1;P1;durP2;ratioP2;P2;SDS_P1;SDS_P2;PMS_P1;PMS_P2;Temp;Humidity;BMP_temperature;BMP_pressure;BME280_temperature;BME280_humidity;BME280_pressure;Samples;Min_cycle;Max_cycle;Signal;HPM_P1;HPM_P2
2023/08/02 00:01:56;;;;;;;1.20;0.95;;;19.70;57.90;;;;;;4967369;28;20054;-61
2023/08/02 00:04:25;;;;;;;3.33;1.17;;;19.60;57.80;;;;;;4967234;28;20062;-61
2023/08/02 00:06:53;;;;;;;3.65;1.30;;;19.60;57.80;;;;;;4967236;28;20170;-59
2023/08/02 00:09:20;;;;;;;5.10;1.48;;;19.60;57.80;;;;;;4966502;28;20046;-61
2023/08/02 00:11:50;;;;;;;3.15;1.10;;;19.60;57.90;;;;;;4965209;28;20058;-61
2023/08/02 00:14:17;;;;;;;2.83;1.23;;;19.50;57.90;;;;;;4966988;28;20050;-61
2023/08/02 00:16:45;;;;;;;4.35;1.50;;;19.50;57.90;;;;;;4966140;28;20399;-60
2023/08/02 00:19:12;;;;;;;3.33;1.15;;;19.50;58.00;;;;;;4966741;28;20482;-61
2023/08/02 00:21:41;;;;;;;4.15;1.05;;;19.40;58.10;;;;;;4966833;28;20054;-61
2023/08/02 00:24:08;;;;;;;3.22;1.15;;;19.40;58.40;;;;;;4965860;28;20138;-54
2023/08/02 00:26:35;;;;;;;3.42;1.25;;;19.40;58.30;;;;;;4965967;28;20046;-57
2023/08/02 00:29:02;;;;;;;3.58;1.30;;;19.50;58.50;;;;;;4966306;28;20061;-57
2023/08/02 00:31:30;;;;;;;1.85;1.00;;;19.40;58.50;;;;;;4966061;28;20055;-57
2023/08/02 00:33:57;;;;;;;2.92;0.90;;;19.40;58.50;;;;;;4966396;28;20048;-60
2023/08/02 00:36:24;;;;;;;4.05;1.45;;;19.40;58.60;;;;;;4965789;28;20051;-60
2023/08/02 00:38:53;;;;;;;2.63;1.13;;;19.40;58.80;;;;;;4965900;28;20063;-60
2023/08/02 00:41:20;;;;;;;2.63;0.70;;;19.40;58.80;;;;;;4964781;28;20054;-59
2023/08/02 00:43:48;;;;;;;8.00;1.73;;;19.40;58.90;;;;;;4966966;28;20068;-61
2023/08/02 00:46:18;;;;;;;4.60;1.42;;;19.40;59.00;;;;;;4966209;28;20047;-60
2023/08/02 00:48:46;;;;;;;3.92;1.40;;;19.40;59.00;;;;;;4965926;28;20054;-56
2023/08/02 00:51:15;;;;;;;2.20;1.10;;;19.40;59.00;;;;;;4966645;28;20059;-60
2023/08/02 00:53:42;;;;;;;3.28;1.40;;;19.40;59.00;;;;;;4965970;28;20518;-61
2023/08/02 00:56:14;;;;;;;1.95;1.15;;;19.40;59.10;;;;;;4964814;28;20050;-52
2023/08/02 00:58:43;;;;;;;3.65;1.38;;;19.40;59.10;;;;;;4966202;28;20059;-50
2023/08/02 01:01:10;;;;;;;3.33;1.42;;;19.40;59.10;;;;;;4977765;23;20062;-46
2023/08/02 01:03:39;;;;;;;4.10;1.42;;;19.40;59.10;;;;;;4945986;28;20058;-46
2023/08/02 01:06:12;;;;;;;3.95;1.67;;;19.40;59.10;;;;;;4944977;28;20055;-48
2023/08/02 01:08:43;;;;;;;5.25;1.73;;;19.40;59.20;;;;;;4946009;28;20582;-47
2023/08/02 01:11:18;;;;;;;2.42;1.42;;;19.40;59.30;;;;;;4944088;28;20055;-46
2023/08/02 01:13:50;;;;;;;2.03;1.15;;;19.40;59.30;;;;;;4945641;28;20055;-48
2023/08/02 01:16:19;;;;;;;2.75;1.40;;;19.40;59.40;;;;;;4944930;28;20054;-49
2023/08/02 01:18:46;;;;;;;5.28;1.70;;;19.40;59.50;;;;;;4945475;28;20444;-47
2023/08/02 01:21:15;;;;;;;6.55;1.55;;;19.40;59.50;;;;;;4945218;28;20059;-46
2023/08/02 01:23:43;;;;;;;3.08;1.50;;;19.40;59.60;;;;;;4944596;28;20066;-49
2023/08/02 01:26:12;;;;;;;4.45;1.67;;;19.40;59.50;;;;;;4944177;28;21512;-49
2023/08/02 01:28:45;;;;;;;3.90;1.55;;;19.40;59.60;;;;;;4944949;28;20063;-49
2023/08/02 01:31:16;;;;;;;3.25;1.75;;;19.40;59.70;;;;;;4945931;28;20070;-48
2023/08/02 01:33:49;;;;;;;4.85;1.80;;;19.40;59.70;;;;;;4945001;28;20055;-48
2023/08/02 01:36:18;;;;;;;12.65;1.65;;;19.40;59.70;;;;;;4945963;28;20514;-49
2023/08/02 01:38:45;;;;;;;6.60;1.90;;;19.40;59.60;;;;;;4943971;28;20078;-47
2023/08/02 01:41:13;;;;;;;5.70;1.55;;;19.40;59.60;;;;;;4943716;28;20059;-47
2023/08/02 01:43:40;;;;;;;4.47;1.92;;;19.50;59.60;;;;;;4943615;28;20066;-46
2023/08/02 01:46:07;;;;;;;5.22;2.13;;;19.50;59.60;;;;;;4945340;28;20047;-48
2023/08/02 01:48:34;;;;;;;6.53;2.20;;;19.40;59.50;;;;;;4943871;28;20058;-47
2023/08/02 01:51:02;;;;;;;4.13;2.08;;;19.40;59.50;;;;;;4945078;28;20604;-46
2023/08/02 01:53:30;;;;;;;6.65;2.30;;;19.40;59.50;;;;;;4944280;28;20051;-48
2023/08/02 01:55:58;;;;;;;6.32;1.83;;;19.40;59.60;;;;;;4943582;28;20610;-48
2023/08/02 01:58:25;;;;;;;4.28;1.98;;;19.40;59.70;;;;;;4945536;28;20055;-49
2023/08/02 02:00:52;;;;;;;4.55;1.45;;;19.40;59.70;;;;;;4945341;28;20074;-47
2023/08/02 02:03:19;;;;;;;4.80;2.33;;;19.40;59.80;;;;;;4945044;28;20051;-48
2023/08/02 02:05:53;;;;;;;5.63;1.75;;;19.40;59.80;;;;;;4943352;28;20542;-46
2023/08/02 02:08:20;;;;;;;3.80;1.60;;;19.40;59.90;;;;;;4946121;28;20503;-50
2023/08/02 02:10:52;;;;;;;3.42;1.45;;;19.40;60.00;;;;;;4943266;28;20491;-49
2023/08/02 02:13:20;;;;;;;2.47;1.38;;;19.30;60.10;;;;;;4945412;28;20063;-47
2023/08/02 02:15:48;;;;;;;2.33;1.50;;;19.40;60.20;;;;;;4944231;28;20055;-47
2023/08/02 02:18:15;;;;;;;3.70;1.63;;;19.40;60.20;;;;;;4944144;28;20075;-46
2023/08/02 02:20:43;;;;;;;4.93;1.90;;;19.30;60.10;;;;;;4943881;28;21239;-53
2023/08/02 02:23:10;;;;;;;2.15;1.40;;;19.40;60.20;;;;;;4943884;28;20066;-47
2023/08/02 02:25:37;;;;;;;2.95;1.58;;;19.40;60.20;;;;;;4943554;28;20086;-50
2023/08/02 02:28:06;;;;;;;4.78;1.85;;;19.40;60.20;;;;;;4944470;28;20066;-48
2023/08/02 02:30:33;;;;;;;3.78;1.70;;;19.40;60.20;;;;;;4943780;28;20455;-48
2023/08/02 02:33:00;;;;;;;3.53;1.50;;;19.40;60.20;;;;;;4943571;28;20423;-48
2023/08/02 02:35:28;;;;;;;5.28;1.60;;;19.40;60.20;;;;;;4944967;28;20050;-47
2023/08/02 02:37:55;;;;;;;7.07;1.90;;;19.40;60.20;;;;;;4944003;28;20139;-46
2023/08/02 02:40:22;;;;;;;4.57;1.80;;;19.50;60.30;;;;;;4942887;28;20051;-50
2023/08/02 02:42:49;;;;;;;5.95;1.77;;;19.50;60.20;;;;;;4942867;28;20055;-47
2023/08/02 02:45:18;;;;;;;3.67;1.52;;;19.50;60.20;;;;;;4944228;28;20062;-49
2023/08/02 02:47:45;;;;;;;3.85;1.95;;;19.50;60.20;;;;;;4944889;28;20066;-45
2023/08/02 02:50:12;;;;;;;3.42;1.80;;;19.50;60.10;;;;;;4943923;28;20419;-48
2023/08/02 02:52:41;;;;;;;2.63;1.50;;;19.50;60.10;;;;;;4944600;28;20051;-47
2023/08/02 02:55:09;;;;;;;3.65;1.60;;;19.50;60.10;;;;;;4945303;28;20086;-48
2023/08/02 02:57:36;;;;;;;3.50;1.70;;;19.50;60.80;;;;;;4942857;28;20470;-47
2023/08/02 03:00:05;;;;;;;5.88;2.20;;;19.50;60.00;;;;;;4943547;28;20055;-49
2023/08/02 03:02:33;;;;;;;3.35;1.88;;;19.50;60.10;;;;;;4942986;28;20069;-47
2023/08/02 03:05:01;;;;;;;5.35;1.60;;;19.50;60.00;;;;;;4944228;28;20055;-46
2023/08/02 03:07:28;;;;;;;6.55;2.05;;;19.50;60.00;;;;;;4943314;28;20391;-46
2023/08/02 03:09:56;;;;;;;2.92;1.75;;;19.50;60.00;;;;;;4945110;28;20059;-47
2023/08/02 03:12:23;;;;;;;6.25;1.60;;;19.50;60.00;;;;;;4941591;28;20063;-46
2023/08/02 03:14:51;;;;;;;2.97;1.85;;;19.50;60.00;;;;;;4944154;28;20491;-49
2023/08/02 03:17:18;;;;;;;6.05;2.10;;;19.50;60.00;;;;;;4942775;28;20050;-49
2023/08/02 03:19:47;;;;;;;4.68;1.80;;;19.50;60.10;;;;;;4943568;28;20059;-51
2023/08/02 03:22:14;;;;;;;4.50;1.85;;;19.50;60.10;;;;;;4943197;28;20059;-49
2023/08/02 03:24:41;;;;;;;3.10;1.58;;;19.40;60.00;;;;;;4942807;28;20517;-45
2023/08/02 03:27:09;;;;;;;4.97;2.05;;;19.50;60.10;;;;;;4942178;28;20062;-47
2023/08/02 03:29:36;;;;;;;8.05;2.40;;;19.40;60.20;;;;;;4943509;28;20055;-46
2023/08/02 03:32:04;;;;;;;5.15;1.95;;;19.40;60.20;;;;;;4943156;28;20086;-47
2023/08/02 03:34:31;;;;;;;4.13;1.70;;;19.40;60.20;;;;;;4942969;28;20059;-50
2023/08/02 03:37:00;;;;;;;3.75;2.03;;;19.40;60.20;;;;;;4943241;28;20066;-48
2023/08/02 03:39:28;;;;;;;3.55;1.58;;;19.40;60.30;;;;;;4942918;28;20059;-47
2023/08/02 03:41:55;;;;;;;3.45;1.88;;;19.40;60.40;;;;;;4941964;28;20070;-47
2023/08/02 03:44:22;;;;;;;4.60;1.73;;;19.40;60.40;;;;;;4943989;28;20066;-46
2023/08/02 03:46:50;;;;;;;4.78;1.77;;;19.40;60.50;;;;;;4945004;28;20067;-51
2023/08/02 03:49:17;;;;;;;3.72;2.05;;;19.40;60.50;;;;;;4944251;28;20059;-46
2023/08/02 03:51:46;;;;;;;3.83;1.95;;;19.40;60.60;;;;;;4945429;28;20047;-47
2023/08/02 03:54:14;;;;;;;3.72;1.85;;;19.40;60.70;;;;;;4943327;28;20062;-47
2023/08/02 03:56:42;;;;;;;78.25;35.78;;;19.40;60.80;;;;;;4940662;28;20593;-47
2023/08/02 03:59:09;;;;;;;103.60;50.33;;;19.40;60.80;;;;;;4943103;28;20047;-49
2023/08/02 04:01:36;;;;;;;35.95;20.02;;;19.40;60.90;;;;;;4944249;28;20055;-45
2023/08/02 04:04:04;;;;;;;13.32;5.57;;;19.40;61.00;;;;;;4944565;28;20063;-48
2023/08/02 04:06:31;;;;;;;5.30;3.25;;;19.40;61.10;;;;;;4942319;28;20047;-47
2023/08/02 04:08:58;;;;;;;7.18;2.60;;;19.40;61.20;;;;;;4943535;28;20062;-47
2023/08/02 04:11:27;;;;;;;3.45;2.25;;;19.40;61.30;;;;;;4945073;28;20074;-45
2023/08/02 04:13:54;;;;;;;3.25;2.03;;;19.40;61.40;;;;;;4946758;28;20067;-46
2023/08/02 04:16:22;;;;;;;5.10;2.08;;;19.40;61.40;;;;;;4945405;28;20058;-48
2023/08/02 04:18:49;;;;;;;5.32;2.50;;;19.40;61.50;;;;;;4949432;28;20131;-48
2023/08/02 04:21:20;;;;;;;4.65;2.45;;;19.40;61.50;;;;;;4947178;28;20443;-48
2023/08/02 04:23:49;;;;;;;3.33;2.10;;;19.40;61.60;;;;;;4946094;28;20051;-45
2023/08/02 04:26:16;;;;;;;4.93;2.10;;;19.40;61.50;;;;;;4945909;28;20055;-47
2023/08/02 04:28:46;;;;;;;3.38;1.90;;;19.40;61.60;;;;;;4946564;28;20476;-47
2023/08/02 04:31:13;;;;;;;3.60;2.08;;;19.50;61.70;;;;;;4946568;28;20063;-48
2023/08/02 04:33:40;;;;;;;3.75;2.15;;;19.50;61.70;;;;;;4946904;28;20455;-46
2023/08/02 04:36:07;;;;;;;3.35;2.30;;;19.50;61.70;;;;;;4947565;28;20062;-52
2023/08/02 04:38:35;;;;;;;4.65;2.13;;;19.50;61.70;;;;;;4948339;28;20051;-49
2023/08/02 04:41:02;;;;;;;3.25;1.98;;;19.50;61.70;;;;;;4945657;28;20098;-47
2023/08/02 04:43:29;;;;;;;3.22;1.88;;;19.50;61.80;;;;;;4945846;28;20058;-47
2023/08/02 04:45:58;;;;;;;5.03;2.20;;;19.50;61.80;;;;;;4946234;28;20062;-48
2023/08/02 04:48:25;;;;;;;4.95;2.22;;;19.50;61.80;;;;;;4945503;28;20066;-47
2023/08/02 04:50:52;;;;;;;5.40;2.08;;;19.50;61.80;;;;;;4947096;28;20506;-51
2023/08/02 04:53:20;;;;;;;7.57;2.35;;;19.50;61.80;;;;;;4946770;28;20062;-50
2023/08/02 04:55:47;;;;;;;5.82;2.42;;;19.50;61.90;;;;;;4944901;28;20431;-48
2023/08/02 04:58:14;;;;;;;3.28;2.33;;;19.50;61.90;;;;;;4946243;28;20051;-47
2023/08/02 05:00:41;;;;;;;12.68;2.80;;;19.50;61.90;;;;;;4945949;28;20062;-50
2023/08/02 05:03:10;;;;;;;5.00;2.78;;;19.50;61.90;;;;;;4946971;28;20066;-48
2023/08/02 05:05:37;;;;;;;4.97;2.30;;;19.60;62.00;;;;;;4945788;28;20044;-46
2023/08/02 05:08:05;;;;;;;5.72;2.70;;;19.60;62.10;;;;;;4946268;28;20078;-47
2023/08/02 05:10:32;;;;;;;5.57;2.50;;;19.60;62.10;;;;;;4946343;28;20051;-48
2023/08/02 05:12:59;;;;;;;3.30;2.38;;;19.60;62.10;;;;;;4944137;28;20415;-47
2023/08/02 05:15:26;;;;;;;3.97;2.30;;;19.60;62.00;;;;;;4945897;28;20058;-48
2023/08/02 05:17:54;;;;;;;8.65;3.00;;;19.60;62.10;;;;;;4946201;28;20062;-46
2023/08/02 05:20:22;;;;;;;9.55;3.17;;;19.60;62.10;;;;;;4945700;28;20055;-50
2023/08/02 05:22:50;;;;;;;6.72;2.50;;;19.60;62.20;;;;;;4943544;28;20059;-48
2023/08/02 05:25:19;;;;;;;8.88;2.63;;;19.60;62.10;;;;;;4944274;28;20055;-48
2023/08/02 05:27:47;;;;;;;4.97;2.75;;;19.60;62.20;;;;;;4943886;28;20507;-46
2023/08/02 05:30:14;;;;;;;6.75;3.05;;;19.60;62.20;;;;;;4943430;28;20058;-48
2023/08/02 05:32:41;;;;;;;8.07;2.67;;;19.60;62.20;;;;;;4945394;28;20082;-45
2023/08/02 05:35:09;;;;;;;4.57;2.78;;;19.60;62.20;;;;;;4944400;28;20755;-48
2023/08/02 05:37:37;;;;;;;5.55;3.10;;;19.60;62.20;;;;;;4944637;28;20055;-52
2023/08/02 05:40:05;;;;;;;8.88;3.10;;;19.60;62.20;;;;;;4945346;28;20055;-47
2023/08/02 05:42:33;;;;;;;5.43;3.15;;;19.60;62.20;;;;;;4944274;28;20062;-48
2023/08/02 05:45:00;;;;;;;6.13;3.00;;;19.60;62.20;;;;;;4943385;28;20499;-48
2023/08/02 05:47:28;;;;;;;3.83;2.90;;;19.60;62.20;;;;;;4944605;28;20051;-47
2023/08/02 05:49:56;;;;;;;4.57;2.70;;;19.60;62.20;;;;;;4944799;28;20692;-47
2023/08/02 05:52:23;;;;;;;4.28;2.65;;;19.60;62.20;;;;;;4945327;28;20055;-48
2023/08/02 05:54:52;;;;;;;7.40;3.38;;;19.60;62.20;;;;;;4946459;28;20062;-48
2023/08/02 05:57:19;;;;;;;6.97;2.72;;;19.60;62.40;;;;;;4943943;28;20062;-49
2023/08/02 05:59:46;;;;;;;5.03;2.83;;;19.70;62.40;;;;;;4946294;28;20054;-51
2023/08/02 06:02:13;;;;;;;4.22;2.75;;;19.60;62.40;;;;;;4944635;28;20504;-48
2023/08/02 06:04:43;;;;;;;4.35;2.80;;;19.60;62.40;;;;;;4945747;28;20058;-49
2023/08/02 06:07:11;;;;;;;4.38;2.70;;;19.70;62.50;;;;;;4946737;28;20617;-51
2023/08/02 06:09:39;;;;;;;6.38;3.10;;;19.70;62.50;;;;;;4943419;28;20451;-50
2023/08/02 06:12:08;;;;;;;3.53;2.90;;;19.70;62.60;;;;;;4943544;28;20070;-50
2023/08/02 06:14:36;;;;;;;5.38;2.85;;;19.70;62.50;;;;;;4944192;28;20592;-49
2023/08/02 06:17:03;;;;;;;4.30;2.45;;;19.70;62.50;;;;;;4943322;28;20051;-53
2023/08/02 06:19:31;;;;;;;6.60;2.85;;;19.70;62.60;;;;;;4945785;28;20054;-53
2023/08/02 06:21:58;;;;;;;4.63;2.40;;;19.70;62.60;;;;;;4943515;28;20408;-52
2023/08/02 06:24:25;;;;;;;5.18;2.42;;;19.70;62.70;;;;;;4945603;28;20047;-51
2023/08/02 06:26:53;;;;;;;18.15;9.77;;;19.70;62.70;;;;;;4943192;28;20082;-46
2023/08/02 06:29:21;;;;;;;16.00;8.45;;;19.70;62.70;;;;;;4944725;28;20051;-50
2023/08/02 06:31:48;;;;;;;11.07;4.75;;;19.70;62.70;;;;;;4944298;28;20063;-53
2023/08/02 06:34:16;;;;;;;4.13;2.85;;;19.70;62.60;;;;;;4945571;28;20063;-50
2023/08/02 06:36:43;;;;;;;5.60;2.90;;;19.70;62.60;;;;;;4945161;28;20059;-51
2023/08/02 06:39:10;;;;;;;4.32;2.70;;;19.70;62.60;;;;;;4944119;28;20047;-52
2023/08/02 06:41:37;;;;;;;5.47;3.03;;;19.70;62.60;;;;;;4943328;28;20148;-50
2023/08/02 06:44:05;;;;;;;7.15;3.45;;;19.70;62.70;;;;;;4944392;28;20059;-52
2023/08/02 06:46:35;;;;;;;6.38;3.60;;;19.70;62.70;;;;;;4945490;28;20391;-48
2023/08/02 06:49:02;;;;;;;4.70;3.22;;;19.70;62.70;;;;;;4944455;28;20047;-54
2023/08/02 06:51:30;;;;;;;6.43;3.72;;;19.70;62.70;;;;;;4944792;28;20711;-50
2023/08/02 06:53:57;;;;;;;6.63;3.92;;;19.80;62.80;;;;;;4945015;28;20069;-51
2023/08/02 06:56:25;;;;;;;5.60;3.47;;;19.80;62.80;;;;;;4944124;28;20059;-50
2023/08/02 06:58:52;;;;;;;6.38;3.97;;;19.80;62.80;;;;;;4944060;28;20062;-51
2023/08/02 07:01:21;;;;;;;8.27;4.13;;;19.80;62.80;;;;;;4944162;28;20070;-49
2023/08/02 07:03:51;;;;;;;8.18;3.88;;;19.80;62.80;;;;;;4944487;28;20495;-49
2023/08/02 07:06:20;;;;;;;6.43;3.70;;;19.80;62.90;;;;;;4943604;28;20055;-50
2023/08/02 07:08:47;;;;;;;8.35;4.00;;;19.80;62.80;;;;;;4945838;28;20515;-48
2023/08/02 07:11:15;;;;;;;4.40;3.13;;;19.80;62.90;;;;;;4943048;28;20051;-48
2023/08/02 07:13:44;;;;;;;4.20;2.90;;;19.90;62.90;;;;;;4943312;28;20051;-52
2023/08/02 07:16:11;;;;;;;4.82;3.22;;;19.90;62.80;;;;;;4944289;28;20051;-49
2023/08/02 07:18:39;;;;;;;4.28;3.08;;;19.90;62.90;;;;;;4943575;28;20051;-50
2023/08/02 07:21:08;;;;;;;5.18;2.95;;;19.90;62.90;;;;;;4943995;28;20051;-49
2023/08/02 07:23:36;;;;;;;8.88;3.40;;;19.90;62.80;;;;;;4944541;28;20065;-49
2023/08/02 07:26:04;;;;;;;4.75;2.72;;;19.90;62.90;;;;;;4944349;28;20086;-52
2023/08/02 07:28:31;;;;;;;6.05;2.88;;;19.90;62.90;;;;;;4944799;28;20055;-51
2023/08/02 07:31:09;;;;;;;4.75;2.83;;;19.90;62.80;;;;;;4944898;28;20051;-51
2023/08/02 07:33:36;;;;;;;3.85;2.33;;;19.90;62.80;;;;;;4944562;28;20393;-46
2023/08/02 07:36:03;;;;;;;4.93;2.47;;;20.00;62.80;;;;;;4943804;28;20066;-52
2023/08/02 07:38:32;;;;;;;6.57;2.40;;;19.90;62.70;;;;;;4944648;28;20063;-49
2023/08/02 07:41:03;;;;;;;4.20;2.65;;;20.00;62.70;;;;;;4942232;28;20066;-46
2023/08/02 07:43:31;;;;;;;6.45;2.38;;;20.00;62.80;;;;;;4944169;28;20051;-49
2023/08/02 07:45:58;;;;;;;3.75;2.28;;;20.00;62.80;;;;;;4945858;28;20423;-47
2023/08/02 07:48:25;;;;;;;4.20;2.63;;;20.00;62.90;;;;;;4948026;28;20066;-47
2023/08/02 07:50:53;;;;;;;30.17;14.05;;;20.00;63.00;;;;;;4947568;28;20415;-46
2023/08/02 07:53:20;;;;;;;14.30;6.85;;;20.00;63.10;;;;;;4949036;28;20055;-53
2023/08/02 07:55:50;;;;;;;6.47;3.65;;;20.00;63.10;;;;;;4948195;28;20070;-51
2023/08/02 07:58:17;;;;;;;4.10;2.40;;;20.00;63.10;;;;;;4947087;28;20066;-50
2023/08/02 08:00:44;;;;;;;6.63;2.10;;;20.00;63.20;;;;;;4945972;28;20055;-48
2023/08/02 08:03:12;;;;;;;3.00;2.00;;;20.10;63.30;;;;;;4947490;28;20510;-47
2023/08/02 08:05:39;;;;;;;3.67;2.20;;;20.10;63.30;;;;;;4946767;28;20051;-48
2023/08/02 08:08:06;;;;;;;5.28;1.95;;;20.10;63.30;;;;;;4946668;28;20059;-47
2023/08/02 08:10:33;;;;;;;3.53;1.90;;;20.10;63.40;;;;;;4947056;28;20054;-47
2023/08/02 08:13:02;;;;;;;4.40;1.83;;;20.20;63.50;;;;;;4945958;28;20055;-47
2023/08/02 08:15:29;;;;;;;3.45;1.63;;;20.20;63.40;;;;;;4947720;28;20055;-47
2023/08/02 08:17:56;;;;;;;4.05;1.83;;;20.20;63.40;;;;;;4948395;28;20503;-48
2023/08/02 08:20:24;;;;;;;2.45;1.42;;;20.20;63.40;;;;;;4947046;28;20136;-46
2023/08/02 08:22:51;;;;;;;3.60;1.70;;;20.20;63.50;;;;;;4947066;28;20063;-55
2023/08/02 08:25:18;;;;;;;2.90;1.77;;;20.30;63.60;;;;;;4946246;28;20066;-47
2023/08/02 08:27:45;;;;;;;4.00;1.27;;;20.30;63.50;;;;;;4945582;28;20059;-48
2023/08/02 08:30:14;;;;;;;3.83;1.63;;;20.30;63.50;;;;;;4947442;28;20100;-48
2023/08/02 08:32:41;;;;;;;2.50;1.48;;;20.30;63.70;;;;;;4947525;28;20414;-54
2023/08/02 08:35:10;;;;;;;4.22;1.50;;;20.30;64.20;;;;;;4947430;28;20054;-46
2023/08/02 08:37:37;;;;;;;3.47;1.67;;;20.40;64.30;;;;;;4947109;28;20070;-50
2023/08/02 08:40:05;;;;;;;2.00;1.20;;;20.50;64.10;;;;;;4947529;28;20058;-45
2023/08/02 08:42:33;;;;;;;2.42;0.98;;;20.50;64.10;;;;;;4944810;28;20075;-46
2023/08/02 08:45:02;;;;;;;2.00;1.00;;;20.50;63.80;;;;;;4946335;28;20055;-46
2023/08/02 08:47:30;;;;;;;2.22;1.10;;;20.50;63.70;;;;;;4946261;28;20415;-45
2023/08/02 08:50:02;;;;;;;3.50;1.00;;;20.60;63.70;;;;;;4946971;28;20143;-46
2023/08/02 08:52:35;;;;;;;1.92;0.98;;;20.60;63.60;;;;;;4945271;28;20051;-47
2023/08/02 08:55:04;;;;;;;0.60;0.60;;;20.70;63.60;;;;;;4946694;28;20422;-46
2023/08/02 08:57:33;;;;;;;3.17;1.10;;;20.70;63.40;;;;;;4943663;28;20058;-48
2023/08/02 09:00:01;;;;;;;0.93;0.70;;;20.70;63.30;;;;;;4948015;28;20051;-49
2023/08/02 09:02:32;;;;;;;11.80;1.52;;;20.70;63.20;;;;;;4945477;28;20051;-48
2023/08/02 09:05:03;;;;;;;1.25;0.68;;;20.80;63.20;;;;;;4946961;28;20069;-45
2023/08/02 09:07:31;;;;;;;0.80;0.50;;;20.80;63.00;;;;;;4946711;28;20059;-48
2023/08/02 09:09:58;;;;;;;3.88;0.60;;;20.80;62.90;;;;;;4946412;28;20051;-52
2023/08/02 09:12:26;;;;;;;1.30;0.60;;;20.80;62.80;;;;;;4944361;28;20066;-47
2023/08/02 09:15:00;;;;;;;1.13;0.60;;;20.80;62.60;;;;;;4946006;28;20055;-49
2023/08/02 09:17:28;;;;;;;1.17;0.50;;;20.70;62.50;;;;;;4946754;28;20423;-48
2023/08/02 09:20:09;;;;;;;1.17;0.40;;;20.70;62.50;;;;;;4945645;28;20055;-54
2023/08/02 09:22:37;;;;;;;3.25;0.60;;;20.70;63.30;;;;;;4946604;28;20496;-47
2023/08/02 09:25:08;;;;;;;0.73;0.40;;;20.70;62.60;;;;;;4947310;28;20052;-47
2023/08/02 09:27:35;;;;;;;0.80;0.47;;;20.70;62.80;;;;;;4945166;28;20082;-49
2023/08/02 09:30:03;;;;;;;0.28;0.28;;;20.70;62.90;;;;;;4946126;28;20418;-49
2023/08/02 09:32:30;;;;;;;1.13;0.60;;;20.70;62.90;;;;;;4946261;28;20423;-47
2023/08/02 09:34:59;;;;;;;0.88;0.52;;;20.70;62.90;;;;;;4945609;28;20059;-47
2023/08/02 09:37:32;;;;;;;0.55;0.50;;;20.60;63.00;;;;;;4944932;28;20421;-48
2023/08/02 09:40:00;;;;;;;0.65;0.50;;;20.70;63.30;;;;;;4945500;28;20074;-46
2023/08/02 09:42:28;;;;;;;0.28;0.20;;;20.70;63.30;;;;;;4945803;28;20079;-49
2023/08/02 09:44:58;;;;;;;0.30;0.30;;;20.70;63.50;;;;;;4946154;28;20082;-47
2023/08/02 09:47:27;;;;;;;1.10;0.40;;;20.70;63.70;;;;;;4944835;28;20423;-48
2023/08/02 09:50:08;;;;;;;0.30;0.30;;;20.70;63.60;;;;;;4946302;28;20055;-51
2023/08/02 09:52:38;;;;;;;0.35;0.35;;;20.70;63.70;;;;;;4945651;28;20055;-48
2023/08/02 09:55:07;;;;;;;0.63;0.20;;;20.80;63.70;;;;;;4945948;28;20059;-49
2023/08/02 09:57:34;;;;;;;0.60;0.38;;;20.80;63.70;;;;;;4944043;28;20055;-47
2023/08/02 10:00:05;;;;;;;0.52;0.20;;;20.80;63.90;;;;;;4946203;28;20059;-47
2023/08/02 10:02:34;;;;;;;0.22;0.20;;;20.90;64.20;;;;;;4944597;28;20090;-46
2023/08/02 10:05:03;;;;;;;0.40;0.30;;;20.90;64.50;;;;;;4945332;28;20055;-49
2023/08/02 10:07:35;;;;;;;0.73;0.28;;;21.00;64.60;;;;;;4944870;28;20059;-48
2023/08/02 10:10:07;;;;;;;0.20;0.20;;;21.00;64.50;;;;;;4945563;28;20157;-47
2023/08/02 10:12:36;;;;;;;0.20;0.20;;;21.10;64.60;;;;;;4943150;28;20055;-49
2023/08/02 10:15:04;;;;;;;0.55;0.30;;;21.10;64.50;;;;;;4945707;28;20058;-52
2023/08/02 10:17:32;;;;;;;0.60;0.17;;;21.10;64.40;;;;;;4945109;28;20054;-46
2023/08/02 10:20:00;;;;;;;1.85;0.15;;;21.20;64.60;;;;;;4945335;28;20055;-50
2023/08/02 10:22:27;;;;;;;1.10;0.13;;;21.20;64.70;;;;;;4944863;28;20058;-51
2023/08/02 10:24:55;;;;;;;0.15;0.15;;;21.30;65.00;;;;;;4945086;28;20081;-47
2023/08/02 10:27:26;;;;;;;0.75;0.20;;;21.40;65.00;;;;;;4944362;28;20055;-49
2023/08/02 10:29:54;;;;;;;0.30;0.15;;;21.40;65.30;;;;;;4945063;28;20055;-47
2023/08/02 10:32:21;;;;;;;0.63;0.20;;;21.50;65.30;;;;;;4945237;28;20059;-50
2023/08/02 10:34:51;;;;;;;0.08;0.08;;;21.50;65.10;;;;;;4945854;28;20059;-47
2023/08/02 10:37:21;;;;;;;0.40;0.20;;;21.60;64.90;;;;;;4944071;28;20150;-47
2023/08/02 10:39:57;;;;;;;0.20;0.10;;;21.60;64.70;;;;;;4943713;28;20059;-56
2023/08/02 10:42:29;;;;;;;0.13;0.13;;;21.70;64.30;;;;;;4942719;28;20078;-49
2023/08/02 10:45:11;;;;;;;0.43;0.15;;;21.70;64.10;;;;;;4944494;28;20396;-49
2023/08/02 10:47:39;;;;;;;0.38;0.28;;;21.80;64.30;;;;;;4941953;28;20058;-49
2023/08/02 10:50:07;;;;;;;0.88;0.20;;;21.80;64.40;;;;;;4945378;28;20055;-48
2023/08/02 10:52:35;;;;;;;0.50;0.10;;;21.90;64.40;;;;;;4944881;28;20051;-49
2023/08/02 10:55:08;;;;;;;0.28;0.28;;;21.90;64.10;;;;;;4942028;28;20050;-49
2023/08/02 10:57:37;;;;;;;0.10;0.10;;;22.00;64.10;;;;;;4943167;28;20051;-53
2023/08/02 11:00:23;;;;;;;0.30;0.30;;;22.00;63.90;;;;;;4944556;28;20058;-53
2023/08/02 11:02:52;;;;;;;2.08;0.20;;;22.00;63.90;;;;;;4945433;28;20066;-49
2023/08/02 11:05:42;;;;;;;0.90;0.20;;;22.00;63.80;;;;;;4944194;28;20063;-51
2023/08/02 11:08:11;;;;;;;0.15;0.10;;;22.10;63.90;;;;;;4944779;28;20074;-49
2023/08/02 11:10:52;;;;;;;0.20;0.10;;;22.10;63.70;;;;;;4944463;28;20062;-49
2023/08/02 11:13:21;;;;;;;0.98;0.57;;;22.20;63.60;;;;;;4944000;28;20476;-50
2023/08/02 11:16:00;;;;;;;9.90;0.30;;;22.20;64.00;;;;;;4943465;28;20055;-47
2023/08/02 11:18:27;;;;;;;0.30;0.08;;;22.20;64.10;;;;;;4944678;28;20400;-47
2023/08/02 11:20:54;;;;;;;0.32;0.10;;;22.30;63.80;;;;;;4946632;28;20055;-49
2023/08/02 11:23:22;;;;;;;1.08;0.40;;;22.30;63.90;;;;;;4948422;28;20055;-50
2023/08/02 11:25:49;;;;;;;0.25;0.10;;;22.40;64.50;;;;;;4947132;28;20055;-48
2023/08/02 11:28:16;;;;;;;0.50;0.20;;;22.50;64.60;;;;;;4948524;28;20078;-48
2023/08/02 11:30:50;;;;;;;0.28;0.10;;;22.50;64.90;;;;;;4947534;28;20147;-48
2023/08/02 11:33:17;;;;;;;0.07;0.00;;;22.60;65.30;;;;;;4948002;28;20090;-49
2023/08/02 11:35:44;;;;;;;0.10;0.10;;;22.60;65.10;;;;;;4947565;28;20499;-48
2023/08/02 11:38:13;;;;;;;0.85;0.17;;;22.70;65.30;;;;;;4948379;28;20055;-47
2023/08/02 11:40:40;;;;;;;0.98;0.20;;;22.80;65.30;;;;;;4948040;28;20066;-51
2023/08/02 11:43:09;;;;;;;0.90;0.30;;;22.80;65.30;;;;;;4947736;28;20047;-50
2023/08/02 11:45:37;;;;;;;0.63;0.20;;;22.90;65.70;;;;;;4947034;28;20059;-49
2023/08/02 11:48:06;;;;;;;0.25;0.10;;;23.00;65.90;;;;;;4948578;28;20051;-46
2023/08/02 11:50:34;;;;;;;0.60;0.20;;;23.00;66.20;;;;;;4947442;28;20059;-47
2023/08/02 11:53:05;;;;;;;1.52;0.35;;;23.10;65.90;;;;;;4946914;28;20063;-49
2023/08/02 11:55:35;;;;;;;0.47;0.22;;;23.20;65.70;;;;;;4946910;28;20055;-50
2023/08/02 11:58:04;;;;;;;1.55;0.30;;;23.20;65.10;;;;;;4947401;28;20062;-48
2023/08/02 12:00:33;;;;;;;6.50;0.85;;;23.30;65.20;;;;;;4947441;28;20059;-48
2023/08/02 12:03:12;;;;;;;0.20;0.10;;;23.30;65.50;;;;;;4948051;28;20430;-47
2023/08/02 12:05:39;;;;;;;0.65;0.25;;;23.40;65.80;;;;;;4948164;28;20047;-50
2023/08/02 12:08:11;;;;;;;0.55;0.13;;;23.50;66.00;;;;;;4948347;28;20059;-47
2023/08/02 12:10:39;;;;;;;0.52;0.20;;;23.60;65.90;;;;;;4946166;28;20051;-49
2023/08/02 12:13:12;;;;;;;0.38;0.28;;;23.70;65.90;;;;;;4947272;28;20065;-53
2023/08/02 12:15:39;;;;;;;0.77;0.30;;;23.80;63.90;;;;;;4947499;28;20467;-52
2023/08/02 12:18:08;;;;;;;0.30;0.25;;;23.80;63.90;;;;;;4947735;28;20066;-51
2023/08/02 12:20:37;;;;;;;0.50;0.22;;;23.90;63.50;;;;;;4947494;28;20087;-49
2023/08/02 12:23:05;;;;;;;1.17;0.20;;;24.00;63.30;;;;;;4947904;28;20055;-48
2023/08/02 12:25:47;;;;;;;0.17;0.17;;;24.00;63.60;;;;;;4946073;28;20055;-47
2023/08/02 12:28:14;;;;;;;0.52;0.30;;;24.10;64.10;;;;;;4946905;28;20634;-49
2023/08/02 12:30:41;;;;;;;0.73;0.40;;;24.10;63.70;;;;;;4946658;28;20058;-49
2023/08/02 12:33:09;;;;;;;1.20;0.40;;;24.20;63.90;;;;;;4947286;28;20086;-49
2023/08/02 12:35:43;;;;;;;2.40;0.40;;;24.20;63.70;;;;;;4947634;28;20058;-49
2023/08/02 12:38:10;;;;;;;;;;;24.30;63.00;;;;;;4947151;28;20051;-47
2023/08/02 12:40:37;;;;;;;0.50;0.30;;;24.40;62.80;;;;;;4946960;28;19926;-56
2023/08/02 12:43:04;;;;;;;0.38;0.38;;;24.50;60.70;;;;;;4945425;28;20065;-55
2023/08/02 12:45:32;;;;;;;0.15;0.15;;;24.50;59.80;;;;;;4947386;28;20472;-53
2023/08/02 12:47:59;;;;;;;1.25;0.70;;;24.50;60.00;;;;;;4945712;28;20055;-54
2023/08/02 12:50:26;;;;;;;7.45;0.50;;;24.50;59.40;;;;;;4946677;28;20518;-53
2023/08/02 12:52:55;;;;;;;4.72;0.60;;;24.60;59.40;;;;;;4945913;28;20055;-49